»·PEaware :: FFT3227 KBOI-KJAC

FFT3227 :: KBOI-KJAC

FLIGHT INFORMATION

Flight Status: Arrived
Operator:
Frontier Airlines
More flights by this operator :: More flights under this callsign
Pilot: Anonymous 18910 (18910)
Aircraft: AIRBUS A320
(A320)
More flights by this aircraft type
Origin: KBOI Boise Air Terminal/Gowen
United States
Destination: KJAC Jackson Hole
United States
More flights between these airports :: More routes between these airports
Route: +BOI3 ROARR DNW
File this flight plan on PilotEdge
Remarks:
Altitude:
(Current/Filed)
23,000ft
Speed:
(Current/Filed)
350kts
Departed: 17-Jun-18 11:46 AM
Arrived: 17-Jun-18 01:03 PM
Distance/Time
Traveled:
239nm/1:17
Distance/Time
To Go:
Arrived

Flight Plot

Page will automatically refresh every two minutes.

Flight plan parsing failed; only flown route is shown


Map Options




Map Legend


Flown Route
Filed Route
Departure Airport
Arrival Airport
Navaid (VOR, NDB)
Fix

Horizontal Profiles

Position Reports

Time Latitude Longitude Heading Altitude Ground
Speed
17-Jun-18 11:32 43.568151 -116.224048 102 2852ft 0kts
17-Jun-18 11:33 43.568151 -116.224048 102 2852ft 0kts
17-Jun-18 11:34 43.568151 -116.224048 102 2852ft 0kts
17-Jun-18 11:35 43.568151 -116.224048 102 2852ft 0kts
17-Jun-18 11:36 43.568151 -116.224048 102 2852ft 0kts
17-Jun-18 11:37 43.568151 -116.224048 102 2852ft 0kts
17-Jun-18 11:38 43.568151 -116.224048 102 2852ft 0kts
17-Jun-18 11:39 43.568151 -116.224048 102 2852ft 0kts
17-Jun-18 11:40 43.568380 -116.224242 215 2852ft 1kts
17-Jun-18 11:41 43.568422 -116.224207 207 2852ft 0kts
17-Jun-18 11:42 43.568269 -116.224312 205 2852ft 8kts
17-Jun-18 11:43 43.564863 -116.217611 111 2852ft 30kts
17-Jun-18 11:44 43.561337 -116.207083 119 2852ft 30kts
17-Jun-18 11:45 43.558793 -116.203101 259 2852ft 13kts
17-Jun-18 11:46 43.572760 -116.243313 295 3727ft 194kts
17-Jun-18 11:47 43.598893 -116.319235 295 6071ft 261kts
17-Jun-18 11:48 43.631404 -116.412969 296 9255ft 281kts
17-Jun-18 11:49 43.644562 -116.516424 239 11471ft 298kts
17-Jun-18 11:50 43.568426 -116.539989 149 13609ft 329kts
17-Jun-18 11:51 43.524856 -116.419569 105 14698ft 392kts
17-Jun-18 11:52 43.492494 -116.268216 106 15851ft 431kts
17-Jun-18 11:53 43.457494 -116.108155 106 17455ft 447kts
17-Jun-18 11:54 43.420731 -115.941749 107 18943ft 462kts
17-Jun-18 11:55 43.382610 -115.770743 107 20326ft 475kts
17-Jun-18 11:56 43.343172 -115.595330 108 21632ft 486kts
17-Jun-18 11:57 43.303115 -115.416552 105 22840ft 496kts
17-Jun-18 11:58 43.309532 -115.229875 80 22931ft 499kts
17-Jun-18 11:59 43.335702 -115.050183 79 24458ft 441kts
17-Jun-18 12:00 43.357667 -114.886320 88 22984ft 438kts
17-Jun-18 12:01 43.374532 -114.720265 84 23174ft 442kts
17-Jun-18 12:02 43.394796 -114.552172 84 24257ft 451kts
17-Jun-18 12:03 43.415538 -114.380793 85 25215ft 460kts
17-Jun-18 12:04 43.436216 -114.207964 86 26073ft 467kts
17-Jun-18 12:05 43.457059 -114.032386 86 26947ft 468kts
17-Jun-18 12:06 43.477711 -113.856629 86 26976ft 460kts
17-Jun-18 12:07 43.497325 -113.683834 86 26974ft 459kts
17-Jun-18 12:08 43.516864 -113.510957 86 26972ft 459kts
17-Jun-18 12:09 43.536098 -113.338689 87 26931ft 459kts
17-Jun-18 12:10 43.555231 -113.165169 87 26934ft 460kts
17-Jun-18 12:11 43.574176 -112.990864 87 26925ft 461kts
17-Jun-18 12:12 43.593052 -112.814000 86 26879ft 473kts
17-Jun-18 12:13 43.612205 -112.632020 86 26932ft 485kts
17-Jun-18 12:14 43.631324 -112.447794 86 26986ft 487kts
17-Jun-18 12:15 43.650046 -112.264306 87 26987ft 486kts
17-Jun-18 12:16 43.668478 -112.080552 87 26958ft 484kts
17-Jun-18 12:17 43.686562 -111.897219 87 26943ft 482kts
17-Jun-18 12:18 43.704316 -111.714280 87 26937ft 482kts
17-Jun-18 12:19 43.721610 -111.532417 87 26206ft 481kts
17-Jun-18 12:20 43.738165 -111.356050 86 23685ft 478kts
17-Jun-18 12:21 43.754165 -111.178059 91 21072ft 466kts
17-Jun-18 12:22 43.711599 -111.022097 139 20120ft 431kts
17-Jun-18 12:23 43.601592 -110.985057 194 19177ft 429kts
17-Jun-18 12:24 43.496361 -111.060316 206 18187ft 426kts
17-Jun-18 12:25 43.397972 -111.135052 207 17595ft 421kts
17-Jun-18 12:26 43.296037 -111.212335 207 17106ft 420kts
17-Jun-18 12:27 43.187632 -111.251000 168 16623ft 414kts
17-Jun-18 12:28 43.103642 -111.158173 115 15882ft 370kts
17-Jun-18 12:29 43.099341 -111.035365 71 14634ft 308kts
17-Jun-18 12:30 43.154989 -110.956717 24 12829ft 288kts
17-Jun-18 12:31 43.226343 -110.922501 21 11659ft 247kts
17-Jun-18 12:32 43.291148 -110.891216 21 11471ft 244kts
17-Jun-18 12:33 43.351234 -110.862213 21 10577ft 217kts
17-Jun-18 12:34 43.407349 -110.835007 21 9960ft 216kts
17-Jun-18 12:35 43.462834 -110.808107 21 9248ft 194kts
17-Jun-18 12:36 43.507503 -110.786498 21 8356ft 150kts
17-Jun-18 12:37 43.545824 -110.767822 21 7596ft 145kts
17-Jun-18 12:38 43.584413 -110.748991 20 6818ft 166kts
17-Jun-18 12:39 43.627385 -110.727088 22 7912ft 190kts
17-Jun-18 12:40 43.683906 -110.701822 19 10401ft 239kts
17-Jun-18 12:41 43.749342 -110.674301 19 13299ft 255kts
17-Jun-18 12:42 43.817558 -110.646481 19 14044ft 257kts
17-Jun-18 12:43 43.886444 -110.618950 10 14049ft 260kts
17-Jun-18 12:44 43.928050 -110.682102 248 14438ft 261kts
17-Jun-18 12:45 43.874664 -110.741125 206 15023ft 268kts
17-Jun-18 12:46 43.801712 -110.799916 207 15021ft 313kts
17-Jun-18 12:47 43.664429 -110.910834 207 15050ft 310kts
17-Jun-18 12:48 43.424481 -111.103568 207 14995ft 303kts
17-Jun-18 12:49 43.189358 -111.289958 198 14974ft 302kts
17-Jun-18 12:50 43.119074 -111.250832 113 14966ft 309kts
17-Jun-18 12:51 43.099107 -111.140116 106 14950ft 280kts
17-Jun-18 12:52 43.083048 -111.045721 106 14931ft 245kts
17-Jun-18 12:53 43.115547 -110.974527 22 14952ft 265kts
17-Jun-18 12:54 43.184848 -110.941951 22 14980ft 263kts
17-Jun-18 12:55 43.253391 -110.909220 22 15003ft 257kts
17-Jun-18 12:56 43.316156 -110.879101 22 14006ft 231kts
17-Jun-18 12:57 43.376273 -110.850065 21 12372ft 232kts
17-Jun-18 12:58 43.431801 -110.823820 21 10292ft 190kts
17-Jun-18 12:59 43.477621 -110.801558 22 8951ft 159kts
17-Jun-18 13:00 43.516613 -110.781798 22 8108ft 148kts
17-Jun-18 13:01 43.555913 -110.762977 21 7420ft 153kts
17-Jun-18 13:02 43.594215 -110.744151 20 6524ft 147kts
17-Jun-18 13:03 43.613828 -110.734571 18 6431ft 26kts
17-Jun-18 13:04 43.614336 -110.732429 224 6431ft 15kts

Navigation Log

Ident Type
Flight plan parsing failed, navigation log unavailable